Time,TemperatureF,DewpointF,PressureIn,WindDirection,WindDirectionDegrees,WindSpeedMPH,WindSpeedGustMPH,Humidity,HourlyPrecipIn,Conditions,Clouds,dailyrainin,SoftwareType,DateUTC
2013-05-22 00:01:00,50.9,48.3,30.03,SE,135,1.1,7.4,91,0.03,,,0.00,WUHU216HW,2013-05-22 04:01:00,
2013-05-22 00:06:00,50.9,48.3,30.03,NE,45,1.8,5.1,91,0.03,,,0.00,WUHU216HW,2013-05-22 04:06:00,
2013-05-22 00:11:00,50.9,48.3,30.03,North,0,1.1,4.7,91,0.03,,,0.00,WUHU216HW,2013-05-22 04:11:00,
2013-05-22 00:16:00,50.9,48.3,30.02,NNW,338,1.1,2.5,91,0.04,,,0.01,WUHU216HW,2013-05-22 04:16:00,
2013-05-22 00:21:00,50.8,48.2,30.03,NNE,23,0.9,2.5,91,0.04,,,0.01,WUHU216HW,2013-05-22 04:21:00,
2013-05-22 00:26:00,50.9,48.3,30.03,WSW,248,8.9,9.2,91,0.09,,,0.07,WUHU216HW,2013-05-22 04:26:00,
2013-05-22 00:31:00,51.1,48.8,30.08,East,90,0.7,9.2,92,0.15,,,0.12,WUHU216HW,2013-05-22 04:31:00,
2013-05-22 00:36:00,50.9,48.6,30.10,SSW,203,1.1,8.9,92,0.30,,,0.27,WUHU216HW,2013-05-22 04:36:00,
2013-05-22 00:41:00,50.9,49.0,30.08,SW,225,3.8,4.0,93,0.35,,,0.33,WUHU216HW,2013-05-22 04:41:00,
2013-05-22 00:46:00,51.1,49.2,30.06,ESE,113,2.5,4.0,93,0.39,,,0.36,WUHU216HW,2013-05-22 04:46:00,
2013-05-22 00:51:00,51.1,49.4,30.02,SSE,158,0.4,3.8,94,0.49,,,0.46,WUHU216HW,2013-05-22 04:51:00,
2013-05-22 00:56:00,50.9,49.0,29.99,SSE,158,2.0,3.1,93,0.48,,,0.48,WUHU216HW,2013-05-22 04:56:00,
2013-05-22 01:01:00,50.9,49.2,29.99,SSW,203,3.1,3.8,94,0.49,,,0.49,WUHU216HW,2013-05-22 05:01:00,
2013-05-22 01:06:00,50.8,49.1,29.99,SSE,158,1.3,4.0,94,0.51,,,0.51,WUHU216HW,2013-05-22 05:06:00,
2013-05-22 01:11:00,50.8,49.1,29.98,North,0,1.8,4.0,94,0.53,,,0.52,WUHU216HW,2013-05-22 05:11:00,
2013-05-22 01:16:00,50.9,49.0,29.96,SSW,203,0.7,3.6,93,0.54,,,0.55,WUHU216HW,2013-05-22 05:16:00,
2013-05-22 01:21:00,50.8,49.1,29.96,ESE,113,2.5,4.7,94,0.55,,,0.57,WUHU216HW,2013-05-22 05:21:00,
2013-05-22 01:26:00,50.8,49.1,29.95,SW,225,1.1,4.7,94,0.51,,,0.59,WUHU216HW,2013-05-22 05:26:00,
2013-05-22 01:31:00,50.8,49.1,29.95,SW,225,0.4,4.0,94,0.49,,,0.61,WUHU216HW,2013-05-22 05:31:00,
2013-05-22 01:36:00,50.8,49.1,29.95,SW,225,2.0,4.0,94,0.31,,,0.63,WUHU216HW,2013-05-22 05:36:00,
2013-05-22 01:41:00,50.8,49.1,29.94,SSW,203,0.9,4.0,94,0.33,,,0.66,WUHU216HW,2013-05-22 05:41:00,
2013-05-22 01:46:00,50.8,49.1,29.94,SSE,158,2.9,4.0,94,0.30,,,0.66,WUHU216HW,2013-05-22 05:46:00,
2013-05-22 01:51:00,50.8,49.1,29.92,SSE,158,3.8,6.9,94,0.22,,,0.68,WUHU216HW,2013-05-22 05:51:00,
2013-05-22 01:56:00,50.8,49.1,29.92,SE,135,2.5,6.9,94,0.21,,,0.70,WUHU216HW,2013-05-22 05:56:00,
2013-05-22 02:01:00,50.8,49.1,29.91,NE,45,2.2,4.5,94,0.21,,,0.72,WUHU216HW,2013-05-22 06:01:00,
2013-05-22 02:06:00,50.8,49.1,29.92,SW,225,0.7,3.4,94,0.20,,,0.72,WUHU216HW,2013-05-22 06:06:00,
2013-05-22 02:11:00,50.8,49.1,29.91,East,90,1.3,2.9,94,0.18,,,0.72,WUHU216HW,2013-05-22 06:11:00,
2013-05-22 02:16:00,50.8,49.1,29.93,NW,315,2.0,3.1,94,0.16,,,0.73,WUHU216HW,2013-05-22 06:16:00,
2013-05-22 02:21:00,50.8,49.1,29.97,WNW,293,4.3,4.5,94,0.15,,,0.73,WUHU216HW,2013-05-22 06:21:00,
2013-05-22 02:26:00,50.9,49.0,29.98,West,270,0.4,4.5,93,0.13,,,0.73,WUHU216HW,2013-05-22 06:26:00,
2013-05-22 02:31:00,51.1,49.2,29.95,North,0,5.4,6.3,93,0.11,,,0.73,WUHU216HW,2013-05-22 06:31:00,
2013-05-22 02:36:00,51.1,49.2,29.96,NNW,338,0.7,6.3,93,0.08,,,0.73,WUHU216HW,2013-05-22 06:36:00,
2013-05-22 02:41:00,51.3,49.3,29.94,NE,45,3.4,5.4,93,0.07,,,0.73,WUHU216HW,2013-05-22 06:41:00,
2013-05-22 02:46:00,51.3,49.3,29.95,WSW,248,0.4,3.6,93,0.05,,,0.73,WUHU216HW,2013-05-22 06:46:00,
2013-05-22 02:51:00,51.3,49.3,29.96,WSW,248,1.1,3.4,93,0.04,,,0.73,WUHU216HW,2013-05-22 06:51:00,
2013-05-22 02:56:00,51.5,49.5,29.97,WNW,293,0.7,1.3,93,0.02,,,0.73,WUHU216HW,2013-05-22 06:56:00,
2013-05-22 03:01:00,51.5,49.5,29.97,NNE,23,1.3,1.8,93,0.02,,,0.74,WUHU216HW,2013-05-22 07:01:00,
2013-05-22 03:06:00,51.7,50.0,29.98,East,90,1.8,2.5,94,0.06,,,0.78,WUHU216HW,2013-05-22 07:06:00,
2013-05-22 03:11:00,51.7,50.0,29.97,North,0,0.9,2.5,94,0.11,,,0.83,WUHU216HW,2013-05-22 07:11:00,
2013-05-22 03:16:00,51.7,49.7,29.97,WSW,248,1.8,2.7,93,0.12,,,0.85,WUHU216HW,2013-05-22 07:16:00,
2013-05-22 03:21:00,51.7,49.7,29.97,West,270,1.1,2.7,93,0.14,,,0.87,WUHU216HW,2013-05-22 07:21:00,
2013-05-22 03:26:00,51.7,49.7,29.97,WNW,293,0.4,1.8,93,0.15,,,0.88,WUHU216HW,2013-05-22 07:26:00,
2013-05-22 03:31:00,51.7,49.7,29.99,SW,225,1.8,2.7,93,0.16,,,0.89,WUHU216HW,2013-05-22 07:31:00,
2013-05-22 03:36:00,51.8,49.9,29.99,WNW,293,2.5,2.7,93,0.20,,,0.93,WUHU216HW,2013-05-22 07:36:00,
2013-05-22 03:41:00,51.8,50.1,30.00,WSW,248,2.5,2.5,94,0.26,,,0.99,WUHU216HW,2013-05-22 07:41:00,
2013-05-22 03:46:00,51.8,50.1,30.00,SW,225,3.1,3.4,94,0.31,,,1.04,WUHU216HW,2013-05-22 07:46:00,
2013-05-22 03:51:00,51.8,50.1,29.99,SSW,203,1.1,4.7,94,0.35,,,1.08,WUHU216HW,2013-05-22 07:51:00,
2013-05-22 03:56:00,51.8,50.1,29.99,SW,225,1.1,4.7,94,0.39,,,1.11,WUHU216HW,2013-05-22 07:56:00,
2013-05-22 04:01:00,51.7,50.0,29.99,SSW,203,1.6,2.9,94,0.39,,,1.13,WUHU216HW,2013-05-22 08:01:00,
2013-05-22 04:06:00,51.7,50.0,29.98,South,180,0.4,2.7,94,0.37,,,1.15,WUHU216HW,2013-05-22 08:06:00,
2013-05-22 04:11:00,51.7,50.0,29.97,SSE,158,0.9,1.8,94,0.33,,,1.16,WUHU216HW,2013-05-22 08:11:00,
2013-05-22 04:16:00,51.8,50.1,29.96,SSE,158,0.4,1.3,94,0.31,,,1.17,WUHU216HW,2013-05-22 08:16:00,
2013-05-22 04:21:00,51.7,50.0,29.96,SSE,158,2.0,2.0,94,0.30,,,1.18,WUHU216HW,2013-05-22 08:21:00,
2013-05-22 04:26:00,51.7,50.0,29.95,NE,45,1.8,2.0,94,0.31,,,1.19,WUHU216HW,2013-05-22 08:26:00,
2013-05-22 04:31:00,51.7,50.0,29.95,NE,45,0.0,2.0,94,0.31,,,1.20,WUHU216HW,2013-05-22 08:31:00,
2013-05-22 04:36:00,51.7,50.0,29.95,SSW,203,0.4,1.8,94,0.25,,,1.21,WUHU216HW,2013-05-22 08:36:00,
2013-05-22 04:41:00,51.7,50.0,29.95,SSW,203,1.8,2.5,94,0.20,,,1.22,WUHU216HW,2013-05-22 08:41:00,
2013-05-22 04:46:00,51.7,50.0,29.95,SW,225,0.4,2.5,94,0.17,,,1.24,WUHU216HW,2013-05-22 08:46:00,
2013-05-22 04:51:00,51.8,50.1,29.94,East,90,0.2,1.8,94,0.16,,,1.24,WUHU216HW,2013-05-22 08:51:00,
2013-05-22 04:56:00,51.8,50.1,29.93,SE,135,2.7,3.6,94,0.12,,,1.25,WUHU216HW,2013-05-22 08:56:00,
2013-05-22 05:01:00,51.7,50.0,29.92,ESE,113,0.4,3.6,94,0.12,,,1.26,WUHU216HW,2013-05-22 09:01:00,
2013-05-22 05:06:00,51.7,50.0,29.92,SW,225,2.5,3.4,94,0.11,,,1.26,WUHU216HW,2013-05-22 09:06:00,
2013-05-22 05:11:00,51.8,50.1,29.92,SSE,158,2.5,4.0,94,0.10,,,1.26,WUHU216HW,2013-05-22 09:11:00,
2013-05-22 05:16:00,51.8,50.1,29.91,SSE,158,1.8,4.0,94,0.09,,,1.27,WUHU216HW,2013-05-22 09:16:00,
2013-05-22 05:21:00,51.7,50.0,29.90,SW,225,2.5,4.0,94,0.09,,,1.27,WUHU216HW,2013-05-22 09:21:00,
2013-05-22 05:26:00,51.7,50.0,29.90,SW,225,2.2,5.1,94,0.08,,,1.27,WUHU216HW,2013-05-22 09:26:00,
2013-05-22 05:31:00,51.7,50.0,29.90,SSW,203,3.4,5.1,94,0.07,,,1.27,WUHU216HW,2013-05-22 09:31:00,
2013-05-22 05:36:00,51.8,50.1,29.90,SSW,203,4.3,8.5,94,0.05,,,1.27,WUHU216HW,2013-05-22 09:36:00,
2013-05-22 05:41:00,51.8,50.1,29.90,South,180,0.9,8.5,94,0.05,,,1.27,WUHU216HW,2013-05-22 09:41:00,
2013-05-22 05:46:00,51.7,50.0,29.91,North,0,0.4,4.7,94,0.03,,,1.27,WUHU216HW,2013-05-22 09:46:00,
2013-05-22 05:51:00,51.8,50.1,29.91,SSW,203,2.2,3.8,94,0.03,,,1.29,WUHU216HW,2013-05-22 09:51:00,
2013-05-22 05:56:00,51.8,50.1,29.91,SW,225,1.1,3.1,94,0.03,,,1.29,WUHU216HW,2013-05-22 09:56:00,
2013-05-22 06:01:00,51.8,50.1,29.92,SW,225,0.9,4.3,94,0.02,,,1.29,WUHU216HW,2013-05-22 10:01:00,
2013-05-22 06:06:00,51.8,50.1,29.93,SW,225,0.0,4.3,94,0.02,,,1.29,WUHU216HW,2013-05-22 10:06:00,
2013-05-22 06:11:00,51.8,50.1,29.94,WSW,248,1.8,2.9,94,0.02,,,1.29,WUHU216HW,2013-05-22 10:11:00,
2013-05-22 06:16:00,51.8,50.1,29.94,West,270,0.7,2.9,94,0.01,,,1.29,WUHU216HW,2013-05-22 10:16:00,
2013-05-22 06:21:00,52.0,50.3,29.94,North,0,0.9,1.6,94,0.01,,,1.29,WUHU216HW,2013-05-22 10:21:00,
2013-05-22 06:26:00,52.0,50.3,29.95,NW,315,0.9,1.6,94,0.01,,,1.29,WUHU216HW,2013-05-22 10:26:00,
2013-05-22 06:31:00,52.2,50.5,29.95,WSW,248,0.4,2.5,94,0.01,,,1.29,WUHU216HW,2013-05-22 10:31:00,
2013-05-22 06:36:00,52.2,50.5,29.94,SE,135,1.1,2.5,94,0.01,,,1.29,WUHU216HW,2013-05-22 10:36:00,
2013-05-22 06:41:00,52.2,50.5,29.95,West,270,1.1,1.3,94,0.01,,,1.29,WUHU216HW,2013-05-22 10:41:00,
2013-05-22 06:46:00,52.2,50.5,29.93,West,270,0.4,1.3,94,0.01,,,1.29,WUHU216HW,2013-05-22 10:46:00,
2013-05-22 06:51:00,52.4,50.7,29.94,West,270,0.0,1.1,94,0.00,,,1.29,WUHU216HW,2013-05-22 10:51:00,
2013-05-22 06:56:00,52.4,50.7,29.93,SW,225,0.0,1.1,94,0.00,,,1.29,WUHU216HW,2013-05-22 10:56:00,
2013-05-22 07:01:00,52.6,50.9,29.94,West,270,1.6,1.8,94,0.00,,,1.29,WUHU216HW,2013-05-22 11:01:00,
2013-05-22 07:06:00,52.6,50.9,29.95,WNW,293,0.7,2.5,94,0.00,,,1.29,WUHU216HW,2013-05-22 11:06:00,
2013-05-22 07:11:00,52.6,50.9,29.94,ENE,68,1.3,2.5,94,0.00,,,1.29,WUHU216HW,2013-05-22 11:11:00,
2013-05-22 07:16:00,52.7,51.3,29.92,NE,45,0.0,2.5,95,0.00,,,1.29,WUHU216HW,2013-05-22 11:16:00,
2013-05-22 07:21:00,52.7,51.3,29.91,ENE,68,1.1,2.5,95,0.00,,,1.29,WUHU216HW,2013-05-22 11:21:00,
2013-05-22 07:26:00,52.9,51.5,29.91,WSW,248,1.6,2.5,95,0.00,,,1.29,WUHU216HW,2013-05-22 11:26:00,
2013-05-22 07:31:00,52.7,51.0,29.93,SW,225,1.8,2.7,94,0.00,,,1.29,WUHU216HW,2013-05-22 11:31:00,
2013-05-22 07:36:00,52.9,51.5,29.93,SW,225,0.2,2.7,95,0.00,,,1.29,WUHU216HW,2013-05-22 11:36:00,
2013-05-22 07:41:00,52.7,51.0,29.93,South,180,1.1,2.0,94,0.00,,,1.29,WUHU216HW,2013-05-22 11:41:00,
2013-05-22 07:46:00,52.9,51.5,29.95,WNW,293,1.8,2.0,95,0.00,,,1.29,WUHU216HW,2013-05-22 11:46:00,
2013-05-22 07:51:00,53.3,51.8,29.95,SSW,203,0.4,2.0,95,0.00,,,1.29,WUHU216HW,2013-05-22 11:51:00,
2013-05-22 07:56:00,53.3,51.8,29.95,WSW,248,1.1,1.8,95,0.00,,,1.29,WUHU216HW,2013-05-22 11:56:00,
2013-05-22 08:01:00,53.3,51.8,29.94,SW,225,0.0,1.8,95,0.00,,,1.29,WUHU216HW,2013-05-22 12:01:00,
2013-05-22 08:06:00,53.3,51.6,29.94,WSW,248,1.8,1.8,94,0.00,,,1.29,WUHU216HW,2013-05-22 12:06:00,
2013-05-22 08:11:00,53.6,52.2,29.94,WSW,248,0.4,1.8,95,0.00,,,1.29,WUHU216HW,2013-05-22 12:11:00,
2013-05-22 08:16:00,54.0,52.6,29.95,West,270,1.1,1.8,95,0.00,,,1.29,WUHU216HW,2013-05-22 12:16:00,
2013-05-22 08:21:00,54.2,52.5,29.95,NNE,23,0.9,2.9,94,0.00,,,1.29,WUHU216HW,2013-05-22 12:21:00,
2013-05-22 08:26:00,54.4,52.9,29.94,NNE,23,0.0,2.9,95,0.00,,,1.29,WUHU216HW,2013-05-22 12:26:00,
2013-05-22 08:31:00,54.7,53.0,29.94,WNW,293,0.4,1.8,94,0.00,,,1.29,WUHU216HW,2013-05-22 12:31:00,
2013-05-22 08:36:00,55.1,53.4,29.94,NNW,338,0.9,1.8,94,0.00,,,1.29,WUHU216HW,2013-05-22 12:36:00,
2013-05-22 08:41:00,54.9,53.2,29.94,ESE,113,0.7,1.1,94,0.00,,,1.29,WUHU216HW,2013-05-22 12:41:00,
2013-05-22 08:46:00,54.7,52.8,29.93,SSE,158,0.4,1.3,93,0.00,,,1.29,WUHU216HW,2013-05-22 12:46:00,
2013-05-22 08:51:00,55.1,53.4,29.93,NNE,23,1.1,2.2,94,0.00,,,1.29,WUHU216HW,2013-05-22 12:51:00,
2013-05-22 08:56:00,55.3,53.6,29.94,NE,45,0.7,2.2,94,0.00,,,1.29,WUHU216HW,2013-05-22 12:56:00,
2013-05-22 09:01:00,55.6,53.9,29.94,NE,45,0.7,1.8,94,0.00,,,1.29,WUHU216HW,2013-05-22 13:01:00,
2013-05-22 09:06:00,55.6,53.7,29.94,North,0,0.2,2.5,93,0.00,,,1.29,WUHU216HW,2013-05-22 13:06:00,
2013-05-22 09:11:00,55.6,53.7,29.94,NNW,338,1.1,2.5,93,0.00,,,1.29,WUHU216HW,2013-05-22 13:11:00,
2013-05-22 09:16:00,56.0,54.0,29.94,NNE,23,0.2,1.8,93,0.00,,,1.29,WUHU216HW,2013-05-22 13:16:00,
2013-05-22 09:21:00,56.3,54.4,29.94,NNE,23,0.0,1.8,93,0.00,,,1.29,WUHU216HW,2013-05-22 13:21:00,
2013-05-22 09:26:00,56.5,54.6,29.94,NW,315,0.4,1.8,93,0.00,,,1.29,WUHU216HW,2013-05-22 13:26:00,
2013-05-22 09:32:00,56.3,53.5,29.93,SSW,203,1.8,2.5,90,0.00,,,1.29,WUHU216HW,2013-05-22 13:32:00,
2013-05-22 09:36:00,56.3,53.5,29.94,SSE,158,1.8,2.7,90,0.00,,,1.29,WUHU216HW,2013-05-22 13:36:00,
2013-05-22 09:42:00,56.5,53.9,29.94,WNW,293,0.2,2.7,91,0.00,,,1.29,WUHU216HW,2013-05-22 13:42:00,
2013-05-22 09:47:00,56.5,53.3,29.94,SSW,203,1.1,1.8,89,0.00,,,1.29,WUHU216HW,2013-05-22 13:47:00,
2013-05-22 09:52:00,56.5,53.6,29.94,SSE,158,0.9,1.8,90,0.00,,,1.29,WUHU216HW,2013-05-22 13:52:00,
2013-05-22 09:57:00,57.2,54.6,29.94,SW,225,1.3,1.8,91,0.00,,,1.29,WUHU216HW,2013-05-22 13:57:00,
2013-05-22 10:02:00,58.0,55.4,29.94,West,270,0.4,2.0,91,0.00,,,1.29,WUHU216HW,2013-05-22 14:02:00,
2013-05-22 10:07:00,58.1,55.5,29.94,North,0,0.4,2.0,91,0.00,,,1.29,WUHU216HW,2013-05-22 14:07:00,
2013-05-22 10:12:00,58.3,55.4,29.94,SE,135,1.1,2.7,90,0.00,,,1.29,WUHU216HW,2013-05-22 14:12:00,
2013-05-22 10:17:00,58.5,55.6,29.94,SW,225,0.4,2.7,90,0.00,,,1.29,WUHU216HW,2013-05-22 14:17:00,
2013-05-22 10:22:00,58.5,55.0,29.94,SE,135,1.6,1.8,88,0.00,,,1.29,WUHU216HW,2013-05-22 14:22:00,
2013-05-22 10:27:00,58.3,55.1,29.94,SE,135,0.4,1.8,89,0.00,,,1.29,WUHU216HW,2013-05-22 14:27:00,
2013-05-22 10:32:00,58.5,55.3,29.95,ESE,113,1.3,2.0,89,0.00,,,1.29,WUHU216HW,2013-05-22 14:32:00,
2013-05-22 10:37:00,58.3,54.8,29.95,WSW,248,1.1,2.2,88,0.00,,,1.29,WUHU216HW,2013-05-22 14:37:00,
2013-05-22 10:42:00,58.3,55.1,29.95,SE,135,0.4,3.8,89,0.00,,,1.29,WUHU216HW,2013-05-22 14:42:00,
2013-05-22 10:47:00,58.5,55.6,29.95,SSW,203,3.1,3.8,90,0.00,,,1.29,WUHU216HW,2013-05-22 14:47:00,
2013-05-22 10:52:00,58.9,56.0,29.95,WSW,248,1.1,4.0,90,0.00,,,1.29,WUHU216HW,2013-05-22 14:52:00,
2013-05-22 10:57:00,59.2,56.3,29.95,NE,45,0.4,4.0,90,0.00,,,1.29,WUHU216HW,2013-05-22 14:57:00,
2013-05-22 11:02:00,59.4,56.2,29.95,SW,225,1.8,2.2,89,0.00,,,1.29,WUHU216HW,2013-05-22 15:02:00,
2013-05-22 11:07:00,59.6,55.7,29.95,SSE,158,0.4,2.2,87,0.00,,,1.29,WUHU216HW,2013-05-22 15:07:00,
2013-05-22 11:12:00,59.4,55.5,29.96,SE,135,1.1,1.8,87,0.00,,,1.29,WUHU216HW,2013-05-22 15:12:00,
2013-05-22 11:17:00,59.6,56.3,29.95,NNE,23,1.3,2.5,89,0.00,,,1.29,WUHU216HW,2013-05-22 15:17:00,
2013-05-22 11:22:00,59.8,55.9,29.96,SE,135,1.8,2.5,87,0.00,,,1.29,WUHU216HW,2013-05-22 15:22:00,
2013-05-22 11:27:00,59.8,56.3,29.96,SE,135,0.4,2.0,88,0.00,,,1.29,WUHU216HW,2013-05-22 15:27:00,
2013-05-22 11:32:00,59.9,56.7,29.96,SW,225,0.7,2.0,89,0.00,,,1.29,WUHU216HW,2013-05-22 15:32:00,
2013-05-22 11:37:00,60.1,56.6,29.96,SE,135,0.4,1.8,88,0.00,,,1.29,WUHU216HW,2013-05-22 15:37:00,
2013-05-22 11:42:00,60.3,56.4,29.96,NNE,23,2.7,2.7,87,0.00,,,1.29,WUHU216HW,2013-05-22 15:42:00,
2013-05-22 11:47:00,60.3,56.8,29.96,NE,45,0.4,2.7,88,0.00,,,1.29,WUHU216HW,2013-05-22 15:47:00,
2013-05-22 11:52:00,60.3,56.8,29.96,WSW,248,0.7,2.7,88,0.00,,,1.29,WUHU216HW,2013-05-22 15:52:00,
2013-05-22 11:57:00,60.5,57.0,29.96,NNW,338,1.1,1.8,88,0.00,,,1.29,WUHU216HW,2013-05-22 15:57:00,
2013-05-22 12:02:00,60.5,57.0,29.97,NNE,23,1.6,1.8,88,0.00,,,1.29,WUHU216HW,2013-05-22 16:02:00,
2013-05-22 12:07:00,60.7,57.2,29.97,SSW,203,0.2,1.8,88,0.00,,,1.29,WUHU216HW,2013-05-22 16:07:00,
2013-05-22 12:12:00,60.8,57.3,29.97,North,0,0.7,1.8,88,0.00,,,1.29,WUHU216HW,2013-05-22 16:12:00,
2013-05-22 12:17:00,61.2,57.7,29.96,NE,45,0.7,1.6,88,0.00,,,1.29,WUHU216HW,2013-05-22 16:17:00,
2013-05-22 12:22:00,61.4,57.2,29.96,ENE,68,2.5,3.4,86,0.00,,,1.29,WUHU216HW,2013-05-22 16:22:00,
2013-05-22 12:27:00,61.0,56.9,29.96,South,180,0.2,3.8,86,0.00,,,1.29,WUHU216HW,2013-05-22 16:27:00,
2013-05-22 12:32:00,61.2,56.3,29.96,ENE,68,0.7,3.8,84,0.00,,,1.29,WUHU216HW,2013-05-22 16:32:00,
2013-05-22 12:37:00,61.2,56.7,29.96,East,90,0.9,2.2,85,0.00,,,1.29,WUHU216HW,2013-05-22 16:37:00,
2013-05-22 12:42:00,61.7,57.5,29.96,NE,45,1.3,2.2,86,0.00,,,1.29,WUHU216HW,2013-05-22 16:42:00,
2013-05-22 12:47:00,62.3,58.1,29.96,NNE,23,0.4,4.0,86,0.00,,,1.29,WUHU216HW,2013-05-22 16:47:00,
2013-05-22 12:52:00,62.3,57.7,29.96,NNE,23,1.8,4.0,85,0.00,,,1.29,WUHU216HW,2013-05-22 16:52:00,
2013-05-22 12:57:00,62.3,57.3,29.96,SSW,203,1.3,3.4,84,0.00,,,1.29,WUHU216HW,2013-05-22 16:57:00,
2013-05-22 13:02:00,62.3,57.7,29.96,ENE,68,0.4,2.5,85,0.00,,,1.29,WUHU216HW,2013-05-22 17:02:00,
2013-05-22 13:07:00,62.5,57.3,29.96,SW,225,0.4,1.8,83,0.00,,,1.29,WUHU216HW,2013-05-22 17:07:00,
2013-05-22 13:12:00,62.6,57.7,29.95,NNW,338,1.1,4.3,84,0.00,,,1.29,WUHU216HW,2013-05-22 17:12:00,
2013-05-22 13:17:00,62.8,57.9,29.95,SSE,158,0.2,4.3,84,0.00,,,1.29,WUHU216HW,2013-05-22 17:17:00,
2013-05-22 13:22:00,63.5,58.6,29.96,NE,45,1.8,2.5,84,0.00,,,1.29,WUHU216HW,2013-05-22 17:22:00,
2013-05-22 13:27:00,63.9,58.6,29.95,NE,45,2.0,3.4,83,0.00,,,1.29,WUHU216HW,2013-05-22 17:27:00,
2013-05-22 13:32:00,64.1,58.8,29.95,SSE,158,0.4,4.5,83,0.00,,,1.29,WUHU216HW,2013-05-22 17:32:00,
2013-05-22 13:37:00,64.1,58.2,29.95,ESE,113,1.1,4.5,81,0.00,,,1.29,WUHU216HW,2013-05-22 17:37:00,
2013-05-22 13:42:00,64.4,58.9,29.95,NW,315,1.8,2.7,82,0.00,,,1.29,WUHU216HW,2013-05-22 17:42:00,
2013-05-22 13:47:00,64.8,59.5,29.94,ENE,68,1.8,3.4,83,0.00,,,1.29,WUHU216HW,2013-05-22 17:47:00,
2013-05-22 13:52:00,64.6,58.7,29.94,NNE,23,1.3,3.6,81,0.00,,,1.29,WUHU216HW,2013-05-22 17:52:00,
2013-05-22 13:57:00,64.1,58.5,29.95,North,0,0.7,4.3,82,0.00,,,1.29,WUHU216HW,2013-05-22 17:57:00,
2013-05-22 14:02:00,63.9,57.2,29.95,SE,135,1.1,4.3,79,0.00,,,1.29,WUHU216HW,2013-05-22 18:02:00,
2013-05-22 14:07:00,63.0,57.1,29.95,SW,225,0.9,2.9,81,0.00,,,1.29,WUHU216HW,2013-05-22 18:07:00,
2013-05-22 14:12:00,62.6,57.1,29.94,ENE,68,0.7,2.9,82,0.00,,,1.29,WUHU216HW,2013-05-22 18:12:00,
2013-05-22 14:17:00,62.3,57.1,29.94,NNW,338,0.4,3.8,83,0.00,,,1.29,WUHU216HW,2013-05-22 18:17:00,
2013-05-22 14:22:00,62.5,57.3,29.94,ENE,68,2.2,3.8,83,0.00,,,1.29,WUHU216HW,2013-05-22 18:22:00,
2013-05-22 14:27:00,62.3,57.1,29.94,SW,225,0.4,3.1,83,0.00,,,1.29,WUHU216HW,2013-05-22 18:27:00,
2013-05-22 14:32:00,62.5,57.3,29.93,NW,315,0.7,2.2,83,0.00,,,1.29,WUHU216HW,2013-05-22 18:32:00,
2013-05-22 14:37:00,62.6,57.1,29.93,NNW,338,1.1,3.4,82,0.00,,,1.29,WUHU216HW,2013-05-22 18:37:00,
2013-05-22 14:42:00,62.6,57.1,29.94,NE,45,3.8,3.8,82,0.00,,,1.29,WUHU216HW,2013-05-22 18:42:00,
2013-05-22 14:47:00,62.1,56.5,29.94,WNW,293,2.2,5.1,82,0.00,,,1.29,WUHU216HW,2013-05-22 18:47:00,
2013-05-22 14:52:00,62.1,56.9,29.94,ENE,68,2.2,5.1,83,0.00,,,1.29,WUHU216HW,2013-05-22 18:52:00,
2013-05-22 14:57:00,61.9,56.7,29.93,West,270,1.1,2.7,83,0.00,,,1.29,WUHU216HW,2013-05-22 18:57:00,
2013-05-22 15:02:00,61.9,56.7,29.94,ESE,113,1.3,2.9,83,0.00,,,1.29,WUHU216HW,2013-05-22 19:02:00,
2013-05-22 15:07:00,61.9,56.7,29.93,NNE,23,2.7,3.8,83,0.00,,,1.29,WUHU216HW,2013-05-22 19:07:00,
2013-05-22 15:12:00,61.9,56.7,29.93,SW,225,0.9,3.8,83,0.00,,,1.29,WUHU216HW,2013-05-22 19:12:00,
2013-05-22 15:17:00,61.9,56.7,29.94,NE,45,0.9,3.4,83,0.00,,,1.29,WUHU216HW,2013-05-22 19:17:00,
2013-05-22 15:22:00,62.1,56.9,29.93,NNE,23,1.8,2.7,83,0.00,,,1.29,WUHU216HW,2013-05-22 19:22:00,
2013-05-22 15:27:00,62.1,56.9,29.93,NE,45,2.0,4.9,83,0.00,,,1.29,WUHU216HW,2013-05-22 19:27:00,
2013-05-22 15:32:00,62.3,57.1,29.93,NNE,23,4.3,4.9,83,0.00,,,1.29,WUHU216HW,2013-05-22 19:32:00,
2013-05-22 15:37:00,62.3,57.1,29.94,NNW,338,1.1,4.3,83,0.00,,,1.29,WUHU216HW,2013-05-22 19:37:00,
2013-05-22 15:42:00,62.3,56.7,29.94,East,90,0.4,3.8,82,0.00,,,1.29,WUHU216HW,2013-05-22 19:42:00,
2013-05-22 15:47:00,62.3,56.3,29.94,South,180,3.6,3.6,81,0.00,,,1.29,WUHU216HW,2013-05-22 19:47:00,
2013-05-22 15:52:00,61.9,56.3,29.94,West,270,0.9,3.6,82,0.00,,,1.29,WUHU216HW,2013-05-22 19:52:00,
2013-05-22 15:57:00,61.9,56.3,29.94,NE,45,2.5,3.6,82,0.00,,,1.29,WUHU216HW,2013-05-22 19:57:00,
2013-05-22 16:02:00,61.7,56.2,29.94,NNE,23,2.0,2.5,82,0.00,,,1.29,WUHU216HW,2013-05-22 20:02:00,
2013-05-22 16:07:00,61.4,55.5,29.95,NNE,23,0.7,3.1,81,0.00,,,1.29,WUHU216HW,2013-05-22 20:07:00,
2013-05-22 16:12:00,61.0,55.5,29.94,North,0,1.6,3.1,82,0.00,,,1.29,WUHU216HW,2013-05-22 20:12:00,
2013-05-22 16:17:00,60.8,55.4,29.94,NNE,23,2.9,2.9,82,0.00,,,1.29,WUHU216HW,2013-05-22 20:17:00,
2013-05-22 16:22:00,60.8,55.4,29.93,West,270,0.9,4.0,82,0.00,,,1.29,WUHU216HW,2013-05-22 20:22:00,
2013-05-22 16:27:00,60.5,55.0,29.93,South,180,1.1,4.5,82,0.00,,,1.29,WUHU216HW,2013-05-22 20:27:00,
2013-05-22 16:32:00,60.5,55.0,29.93,NE,45,0.7,4.5,82,0.00,,,1.29,WUHU216HW,2013-05-22 20:32:00,
2013-05-22 16:37:00,60.5,55.4,29.93,ENE,68,1.3,3.4,83,0.00,,,1.29,WUHU216HW,2013-05-22 20:37:00,
2013-05-22 16:42:00,60.5,55.0,29.93,NW,315,2.0,4.0,82,0.00,,,1.29,WUHU216HW,2013-05-22 20:42:00,
2013-05-22 16:47:00,59.6,54.1,29.94,SSE,158,5.4,5.4,82,0.00,,,1.29,WUHU216HW,2013-05-22 20:47:00,
2013-05-22 16:52:00,59.0,53.9,29.94,NNE,23,0.4,5.8,83,0.00,,,1.29,WUHU216HW,2013-05-22 20:52:00,
2013-05-22 16:57:00,59.2,54.1,29.94,SE,135,1.3,5.8,83,0.00,,,1.29,WUHU216HW,2013-05-22 20:57:00,
2013-05-22 17:02:00,59.4,54.3,29.94,SSE,158,0.4,4.0,83,0.00,,,1.29,WUHU216HW,2013-05-22 21:02:00,
2013-05-22 17:07:00,59.0,53.9,29.94,ENE,68,0.4,2.0,83,0.00,,,1.29,WUHU216HW,2013-05-22 21:07:00,
2013-05-22 17:12:00,59.0,53.9,29.93,ENE,68,0.9,3.6,83,0.00,,,1.29,WUHU216HW,2013-05-22 21:12:00,
2013-05-22 17:17:00,59.0,54.2,29.93,SSE,158,1.1,3.6,84,0.00,,,1.29,WUHU216HW,2013-05-22 21:17:00,
2013-05-22 17:22:00,59.0,54.2,29.93,North,0,1.6,3.6,84,0.00,,,1.29,WUHU216HW,2013-05-22 21:22:00,
2013-05-22 17:27:00,59.0,53.9,29.94,NNE,23,3.4,3.6,83,0.00,,,1.29,WUHU216HW,2013-05-22 21:27:00,
2013-05-22 17:32:00,58.7,53.6,29.94,NE,45,1.3,3.6,83,0.00,,,1.29,WUHU216HW,2013-05-22 21:32:00,
2013-05-22 17:37:00,58.7,53.6,29.93,NNW,338,0.9,4.0,83,0.00,,,1.29,WUHU216HW,2013-05-22 21:37:00,
2013-05-22 17:42:00,58.5,53.4,29.93,ENE,68,4.0,4.0,83,0.00,,,1.29,WUHU216HW,2013-05-22 21:42:00,
2013-05-22 17:47:00,58.3,53.2,29.93,East,90,1.1,4.0,83,0.00,,,1.29,WUHU216HW,2013-05-22 21:47:00,
2013-05-22 17:52:00,58.5,53.6,29.93,SW,225,1.1,4.0,84,0.00,,,1.29,WUHU216HW,2013-05-22 21:52:00,
2013-05-22 17:57:00,58.3,53.5,29.93,West,270,0.9,3.4,84,0.00,,,1.29,WUHU216HW,2013-05-22 21:57:00,
2013-05-22 18:02:00,58.3,53.5,29.93,NNW,338,0.7,3.4,84,0.00,,,1.29,WUHU216HW,2013-05-22 22:02:00,
2013-05-22 18:07:00,58.1,53.3,29.94,ENE,68,1.1,3.8,84,0.00,,,1.29,WUHU216HW,2013-05-22 22:07:00,
2013-05-22 18:12:00,58.0,53.1,29.93,North,0,1.3,3.8,84,0.00,,,1.29,WUHU216HW,2013-05-22 22:12:00,
2013-05-22 18:17:00,58.0,53.1,29.93,WSW,248,1.1,2.5,84,0.00,,,1.29,WUHU216HW,2013-05-22 22:17:00,
2013-05-22 18:22:00,58.0,53.1,29.93,North,0,0.9,4.0,84,0.00,,,1.29,WUHU216HW,2013-05-22 22:22:00,
2013-05-22 18:27:00,57.8,52.9,29.94,North,0,0.4,4.0,84,0.00,,,1.29,WUHU216HW,2013-05-22 22:27:00,
2013-05-22 18:32:00,57.8,52.9,29.94,NE,45,0.4,2.5,84,0.00,,,1.29,WUHU216HW,2013-05-22 22:32:00,
2013-05-22 18:37:00,57.6,53.1,29.94,ESE,113,0.0,1.8,85,0.00,,,1.29,WUHU216HW,2013-05-22 22:37:00,
2013-05-22 18:42:00,57.6,53.1,29.95,NNE,23,0.9,2.5,85,0.00,,,1.29,WUHU216HW,2013-05-22 22:42:00,
2013-05-22 18:47:00,57.6,53.1,29.95,NNW,338,1.1,2.9,85,0.00,,,1.29,WUHU216HW,2013-05-22 22:47:00,
2013-05-22 18:52:00,57.4,52.9,29.95,NNE,23,1.1,3.4,85,0.00,,,1.29,WUHU216HW,2013-05-22 22:52:00,
2013-05-22 18:57:00,57.2,52.4,29.95,SE,135,0.2,3.4,84,0.00,,,1.29,WUHU216HW,2013-05-22 22:57:00,
2013-05-22 19:02:00,56.9,52.4,29.95,NNE,23,1.6,5.1,85,0.01,,,1.29,WUHU216HW,2013-05-22 23:02:00,
2013-05-22 19:07:00,56.5,52.4,29.96,West,270,0.2,5.1,86,0.01,,,1.29,WUHU216HW,2013-05-22 23:07:00,
2013-05-22 19:12:00,56.2,52.0,29.96,North,0,0.4,1.8,86,0.02,,,1.31,WUHU216HW,2013-05-22 23:12:00,
2013-05-22 19:17:00,56.0,51.9,29.97,NNE,23,0.9,1.6,86,0.03,,,1.31,WUHU216HW,2013-05-22 23:17:00,
2013-05-22 19:22:00,55.8,51.9,29.96,ENE,68,0.4,1.1,87,0.04,,,1.33,WUHU216HW,2013-05-22 23:22:00,
2013-05-22 19:27:00,55.4,51.6,29.96,NNE,23,0.4,1.6,87,0.04,,,1.33,WUHU216HW,2013-05-22 23:27:00,
2013-05-22 19:32:00,55.4,51.9,29.96,NNE,23,0.4,1.8,88,0.05,,,1.33,WUHU216HW,2013-05-22 23:32:00,
2013-05-22 19:37:00,55.1,51.8,29.97,East,90,1.1,2.5,89,0.05,,,1.33,WUHU216HW,2013-05-22 23:37:00,
2013-05-22 19:42:00,55.1,51.8,29.96,North,0,1.3,2.5,89,0.05,,,1.33,WUHU216HW,2013-05-22 23:42:00,
2013-05-22 19:47:00,55.1,51.8,29.96,North,0,2.7,2.7,89,0.05,,,1.33,WUHU216HW,2013-05-22 23:47:00,
2013-05-22 19:52:00,54.9,51.7,29.97,NNE,23,1.8,3.1,89,0.05,,,1.33,WUHU216HW,2013-05-22 23:52:00,
2013-05-22 19:57:00,54.7,51.5,29.96,NNE,23,0.4,3.1,89,0.05,,,1.33,WUHU216HW,2013-05-22 23:57:00,
2013-05-22 20:02:00,54.7,51.5,29.95,East,90,0.9,2.5,89,0.04,,,1.33,WUHU216HW,2013-05-23 00:02:00,
2013-05-22 20:07:00,54.5,52.2,29.96,South,180,1.8,2.5,92,0.03,,,1.33,WUHU216HW,2013-05-23 00:07:00,
2013-05-22 20:12:00,54.5,51.9,29.96,North,0,1.6,3.6,91,0.02,,,1.33,WUHU216HW,2013-05-23 00:12:00,
2013-05-22 20:17:00,54.5,51.7,29.96,ESE,113,1.1,3.6,90,0.02,,,1.33,WUHU216HW,2013-05-23 00:17:00,
2013-05-22 20:22:00,54.5,51.7,29.96,NW,315,0.9,2.0,90,0.01,,,1.33,WUHU216HW,2013-05-23 00:22:00,
2013-05-22 20:27:00,54.4,51.8,29.96,North,0,0.7,2.0,91,0.00,,,1.33,WUHU216HW,2013-05-23 00:27:00,
2013-05-22 20:32:00,54.4,51.5,29.96,East,90,1.1,1.8,90,0.00,,,1.33,WUHU216HW,2013-05-23 00:32:00,
2013-05-22 20:37:00,54.4,51.5,29.97,North,0,0.4,2.0,90,0.00,,,1.33,WUHU216HW,2013-05-23 00:37:00,
2013-05-22 20:42:00,54.2,51.6,29.97,NNW,338,0.4,2.0,91,0.00,,,1.33,WUHU216HW,2013-05-23 00:42:00,
2013-05-22 20:47:00,54.2,51.6,29.97,East,90,0.7,2.0,91,0.00,,,1.33,WUHU216HW,2013-05-23 00:47:00,
2013-05-22 20:52:00,54.2,51.6,29.97,North,0,0.4,1.6,91,0.00,,,1.33,WUHU216HW,2013-05-23 00:52:00,
2013-05-22 20:57:00,54.2,51.6,29.97,North,0,0.4,1.1,91,0.00,,,1.33,WUHU216HW,2013-05-23 00:57:00,
2013-05-22 21:02:00,54.4,51.8,29.97,NNE,23,1.8,1.8,91,0.00,,,1.33,WUHU216HW,2013-05-23 01:02:00,
2013-05-22 21:07:00,54.2,51.6,29.97,ENE,68,0.7,2.5,91,0.00,,,1.33,WUHU216HW,2013-05-23 01:07:00,
2013-05-22 21:12:00,54.2,51.6,29.98,ENE,68,0.9,2.5,91,0.00,,,1.33,WUHU216HW,2013-05-23 01:12:00,
2013-05-22 21:17:00,54.2,51.6,29.97,WSW,248,1.1,2.5,91,0.00,,,1.33,WUHU216HW,2013-05-23 01:17:00,
2013-05-22 21:22:00,54.2,51.6,29.97,NNW,338,0.2,2.5,91,0.00,,,1.33,WUHU216HW,2013-05-23 01:22:00,
2013-05-22 21:27:00,54.0,51.4,29.97,ENE,68,1.1,1.8,91,0.00,,,1.33,WUHU216HW,2013-05-23 01:27:00,
2013-05-22 21:32:00,54.2,51.8,29.97,WNW,293,0.9,1.3,92,0.00,,,1.33,WUHU216HW,2013-05-23 01:32:00,
2013-05-22 21:37:00,54.0,51.7,29.98,NNE,23,0.0,1.8,92,0.00,,,1.33,WUHU216HW,2013-05-23 01:37:00,
2013-05-22 21:42:00,54.0,51.7,29.97,ESE,113,0.9,1.8,92,0.00,,,1.33,WUHU216HW,2013-05-23 01:42:00,
2013-05-22 21:47:00,54.0,51.7,29.98,North,0,1.1,1.3,92,0.00,,,1.33,WUHU216HW,2013-05-23 01:47:00,
2013-05-22 21:52:00,54.0,51.7,29.97,NE,45,0.7,2.5,92,0.00,,,1.33,WUHU216HW,2013-05-23 01:52:00,
2013-05-22 21:57:00,54.0,51.7,29.98,North,0,0.7,2.5,92,0.00,,,1.33,WUHU216HW,2013-05-23 01:57:00,
2013-05-22 22:02:00,54.0,51.7,29.98,NNW,338,0.4,2.0,92,0.00,,,1.33,WUHU216HW,2013-05-23 02:02:00,
2013-05-22 22:07:00,54.0,51.7,29.98,North,0,0.0,2.0,92,0.00,,,1.33,WUHU216HW,2013-05-23 02:07:00,
2013-05-22 22:12:00,54.0,51.7,29.98,NNW,338,0.4,0.9,92,0.00,,,1.33,WUHU216HW,2013-05-23 02:12:00,
2013-05-22 22:17:00,54.2,51.8,29.98,NNE,23,0.4,1.3,92,0.00,,,1.33,WUHU216HW,2013-05-23 02:17:00,
2013-05-22 22:22:00,54.2,51.8,29.98,ENE,68,0.4,1.3,92,0.00,,,1.33,WUHU216HW,2013-05-23 02:22:00,
2013-05-22 22:27:00,54.0,51.7,29.98,NNE,23,0.4,1.8,92,0.00,,,1.33,WUHU216HW,2013-05-23 02:27:00,
2013-05-22 22:32:00,54.0,51.7,29.97,NNE,23,0.4,1.8,92,0.00,,,1.33,WUHU216HW,2013-05-23 02:32:00,
2013-05-22 22:37:00,54.0,51.7,29.97,East,90,0.4,1.8,92,0.00,,,1.33,WUHU216HW,2013-05-23 02:37:00,
2013-05-22 22:42:00,54.0,51.7,29.97,South,180,0.2,1.8,92,0.00,,,1.33,WUHU216HW,2013-05-23 02:42:00,
2013-05-22 22:47:00,54.0,51.7,29.97,East,90,0.4,2.0,92,0.00,,,1.33,WUHU216HW,2013-05-23 02:47:00,
2013-05-22 22:52:00,54.0,51.7,29.97,WNW,293,0.9,2.0,92,0.00,,,1.33,WUHU216HW,2013-05-23 02:52:00,
2013-05-22 22:57:00,54.0,51.7,29.97,NNW,338,0.7,1.6,92,0.00,,,1.33,WUHU216HW,2013-05-23 02:57:00,
2013-05-22 23:02:00,54.0,51.7,29.97,NNW,338,0.0,1.1,92,0.01,,,1.35,WUHU216HW,2013-05-23 03:02:00,
2013-05-22 23:07:00,54.0,51.7,29.97,NNE,23,0.4,0.7,92,0.01,,,1.35,WUHU216HW,2013-05-23 03:07:00,
2013-05-22 23:12:00,54.0,51.7,29.96,North,0,0.2,1.1,92,0.01,,,1.35,WUHU216HW,2013-05-23 03:12:00,
2013-05-22 23:17:00,54.0,51.7,29.96,NNE,23,1.1,1.1,92,0.01,,,1.35,WUHU216HW,2013-05-23 03:17:00,
2013-05-22 23:22:00,54.2,51.8,29.96,NNE,23,0.2,1.6,92,0.01,,,1.35,WUHU216HW,2013-05-23 03:22:00,
2013-05-22 23:27:00,54.0,51.7,29.96,North,0,1.3,1.6,92,0.01,,,1.35,WUHU216HW,2013-05-23 03:27:00,
2013-05-22 23:32:00,54.0,51.7,29.96,North,0,0.0,1.3,92,0.01,,,1.35,WUHU216HW,2013-05-23 03:32:00,
2013-05-22 23:37:00,54.2,51.8,29.95,NE,45,1.1,1.3,92,0.01,,,1.35,WUHU216HW,2013-05-23 03:37:00,
2013-05-22 23:42:00,54.2,51.8,29.95,SSE,158,0.2,1.1,92,0.01,,,1.35,WUHU216HW,2013-05-23 03:42:00,
2013-05-22 23:47:00,54.2,51.8,29.95,South,180,0.4,1.1,92,0.01,,,1.35,WUHU216HW,2013-05-23 03:47:00,
2013-05-22 23:52:00,54.2,51.8,29.95,South,180,0.4,0.9,92,0.01,,,1.35,WUHU216HW,2013-05-23 03:52:00,
2013-05-22 23:57:00,54.2,51.8,29.95,SSE,158,1.1,1.1,92,0.01,,,1.35,WUHU216HW,2013-05-23 03:57:00,